Time;durP1;ratioP1;P1;durP2;ratioP2;P2;SDS_P1;SDS_P2;PMS_P1;PMS_P2;Temp;Humidity;BMP_temperature;BMP_pressure;BME280_temperature;BME280_humidity;BME280_pressure;Samples;Min_cycle;Max_cycle;Signal;HPM_P1;HPM_P2
2022/04/13 00:01:08;;;;;;;;;6.00;4.00;;;;;16.78;44.69;99456.56;5049662;28;8907;-62
2022/04/13 00:03:36;;;;;;;;;2.50;2.50;;;;;16.77;45.05;99451.34;5056565;28;8826;-62
2022/04/13 00:06:04;;;;;;;;;4.00;4.00;;;;;16.72;45.44;99451.88;5058959;28;8850;-63
2022/04/13 00:08:32;;;;;;;;;5.00;5.00;;;;;16.70;45.04;99456.59;5055643;28;8850;-62
2022/04/13 00:11:00;;;;;;;;;4.50;4.50;;;;;16.66;44.90;99455.28;5056340;28;8834;-62
2022/04/13 00:13:28;;;;;;;;;5.00;4.00;;;;;16.60;44.96;99450.56;5039628;28;8809;-62
2022/04/13 00:15:56;;;;;;;;;4.00;4.00;;;;;16.52;45.32;99453.28;5039620;28;8828;-62
2022/04/13 00:18:24;;;;;;;;;4.00;4.00;;;;;16.45;45.26;99462.19;5037781;28;8832;-63
2022/04/13 00:20:51;;;;;;;;;0.75;0.75;;;;;16.39;45.66;99460.19;5038139;28;8876;-62
2022/04/13 00:23:19;;;;;;;;;4.00;4.00;;;;;16.35;45.51;99451.59;5037862;28;8838;-62
2022/04/13 00:25:48;;;;;;;;;6.00;6.00;;;;;16.32;45.39;99461.88;5038179;28;8926;-63
2022/04/13 00:28:16;;;;;;;;;4.00;3.25;;;;;16.28;45.54;99466.75;5038214;28;8975;-63
2022/04/13 00:30:43;;;;;;;;;4.00;4.00;;;;;16.23;46.12;99462.03;5053597;28;8836;-62
2022/04/13 00:33:11;;;;;;;;;3.00;3.00;;;;;16.18;45.65;99467.91;5038235;28;8831;-63
2022/04/13 00:35:39;;;;;;;;;3.00;3.00;;;;;16.16;45.72;99466.41;5056854;28;8819;-64
2022/04/13 00:38:07;;;;;;;;;3.00;3.00;;;;;16.15;45.60;99464.72;5042416;28;8832;-63
2022/04/13 00:40:35;;;;;;;;;1.00;1.00;;;;;16.11;45.58;99474.13;5038394;28;8852;-63
2022/04/13 00:43:02;;;;;;;;;3.33;3.33;;;;;16.07;45.76;99472.78;5039109;28;8856;-63
2022/04/13 00:45:30;;;;;;;;;3.00;3.00;;;;;16.05;46.25;99469.41;5056971;28;8838;-62
2022/04/13 00:47:58;;;;;;;;;3.00;3.00;;;;;16.03;45.78;99480.34;5057578;28;8814;-62
2022/04/13 00:50:26;;;;;;;;;4.00;3.50;;;;;16.02;46.19;99475.97;5048604;28;8840;-61
2022/04/13 00:52:53;;;;;;;;;3.50;3.50;;;;;16.03;45.99;99477.66;5037909;28;9486;-62
2022/04/13 00:55:24;;;;;;;;;4.00;4.00;;;;;16.07;45.56;99483.53;5038126;28;8991;-62
2022/04/13 00:57:52;;;;;;;;;5.50;3.00;;;;;16.10;45.59;99483.19;5037936;28;8877;-62
2022/04/13 01:00:20;;;;;;;;;3.50;3.50;;;;;16.07;45.69;99487.03;5037926;28;9510;-61
2022/04/13 01:02:47;;;;;;;;;4.50;3.25;;;;;16.04;45.64;99486.53;5046675;28;8834;-62
2022/04/13 01:05:16;;;;;;;;;3.00;3.00;;;;;15.99;46.17;99483.53;5057341;28;8973;-62
2022/04/13 01:07:44;;;;;;;;;3.50;3.50;;;;;15.94;45.90;99483.19;5037777;28;8824;-62
2022/04/13 01:10:11;;;;;;;;;6.00;6.00;;;;;15.88;46.12;99492.75;5035869;28;8833;-62
2022/04/13 01:12:39;;;;;;;;;3.00;3.00;;;;;15.83;46.06;99486.19;5036077;28;8863;-61
2022/04/13 01:15:07;;;;;;;;;3.50;2.75;;;;;15.75;46.35;99495.09;5053863;28;8831;-61
2022/04/13 01:17:35;;;;;;;;;4.00;4.00;;;;;15.71;46.73;99500.94;5054822;28;8811;-62
2022/04/13 01:20:05;;;;;;;;;4.00;3.75;;;;;15.65;46.31;99499.78;5057719;28;8835;-62
2022/04/13 01:22:33;;;;;;;;;4.50;4.50;;;;;15.62;46.46;99501.94;5055750;28;8847;-62
2022/04/13 01:25:00;;;;;;;;;4.00;4.00;;;;;15.56;46.94;99502.59;5057111;28;8838;-62
2022/04/13 01:27:28;;;;;;;;;3.00;2.00;;;;;15.51;46.75;99515.66;5051624;28;9483;-62
2022/04/13 01:29:56;;;;;;;;;3.00;3.00;;;;;15.44;47.20;99511.94;5036041;28;8831;-62
2022/04/13 01:32:23;;;;;;;;;4.00;4.00;;;;;15.36;47.16;99509.25;5036557;28;9664;-61
2022/04/13 01:34:52;;;;;;;;;4.00;4.00;;;;;15.30;47.26;99512.53;5016744;28;8842;-62
2022/04/13 01:37:19;;;;;;;;;6.25;5.00;;;;;15.25;46.98;99518.38;5016599;28;8850;-62
2022/04/13 01:39:47;;;;;;;;;1.50;1.00;;;;;15.21;47.33;99506.31;5015992;28;8846;-62
2022/04/13 01:42:14;;;;;;;;;4.50;4.50;;;;;15.18;47.59;99517.34;5032511;28;8834;-62
2022/04/13 01:44:44;;;;;;;;;3.00;3.00;;;;;15.12;47.55;99520.69;5041258;28;8829;-62
2022/04/13 01:47:12;;;;;;;;;2.25;2.25;;;;;15.09;47.33;99523.69;5037195;28;8832;-63
2022/04/13 01:49:40;;;;;;;;;3.25;3.25;;;;;15.06;47.79;99523.16;5037018;28;8863;-62
2022/04/13 01:52:07;;;;;;;;;1.00;1.00;;;;;15.01;47.35;99526.34;5041439;28;8818;-62
2022/04/13 01:54:35;;;;;;;;;3.00;3.00;;;;;14.97;47.47;99527.66;5056157;28;9522;-62
2022/04/13 01:57:03;;;;;;;;;5.00;5.00;;;;;14.92;47.86;99519.25;5051122;28;8894;-62
2022/04/13 01:59:30;;;;;;;;;4.00;4.00;;;;;14.89;47.84;99529.44;5036431;28;8852;-62
2022/04/13 02:01:58;;;;;;;;;4.50;4.00;;;;;14.85;47.74;99536.13;5051846;28;8826;-63
2022/04/13 02:04:27;;;;;;;;;3.50;3.50;;;;;14.79;48.24;99537.59;5040875;28;8816;-62
2022/04/13 02:06:55;;;;;;;;;4.00;3.00;;;;;14.74;47.93;99534.56;5054351;28;8834;-66
2022/04/13 02:09:22;;;;;;;;;1.00;1.00;;;;;14.70;48.49;99543.06;5056110;28;8849;-62
2022/04/13 02:11:50;;;;;;;;;6.25;5.50;;;;;14.62;48.26;99538.50;5056309;28;8830;-62
2022/04/13 02:14:18;;;;;;;;;3.25;3.25;;;;;14.56;47.92;99540.97;5044450;28;8824;-65
2022/04/13 02:16:46;;;;;;;;;2.50;2.50;;;;;14.50;48.56;99544.28;5036102;28;8832;-66
2022/04/13 02:19:14;;;;;;;;;4.00;4.00;;;;;14.44;48.45;99548.44;5036154;28;8883;-62
2022/04/13 02:21:42;;;;;;;;;6.00;4.00;;;;;14.40;49.05;99540.84;5036773;28;8825;-62
2022/04/13 02:24:10;;;;;;;;;3.50;3.00;;;;;14.35;48.47;99541.31;5036353;28;8836;-62
2022/04/13 02:26:38;;;;;;;;;2.00;1.00;;;;;14.32;49.23;99541.63;5036076;28;8830;-62
2022/04/13 02:29:06;;;;;;;;;5.25;4.00;;;;;14.31;49.24;99539.94;5036139;28;8832;-65
2022/04/13 02:31:34;;;;;;;;;5.00;4.00;;;;;14.33;48.51;99542.47;5036694;28;8868;-62
2022/04/13 02:34:04;;;;;;;;;1.67;1.67;;;;;14.33;48.46;99539.81;5026055;28;8944;-62
2022/04/13 02:36:31;;;;;;;;;3.25;3.25;;;;;14.34;48.42;99530.78;5046749;28;8836;-62
2022/04/13 02:38:59;;;;;;;;;4.00;4.00;;;;;14.33;48.91;99532.59;5016173;28;8843;-63
2022/04/13 02:41:27;;;;;;;;;3.25;3.25;;;;;14.31;48.77;99531.06;5043407;28;9522;-62
2022/04/13 02:43:55;;;;;;;;;3.75;3.00;;;;;14.28;48.85;99532.22;5046792;28;8827;-63
2022/04/13 02:46:23;;;;;;;;;3.00;3.00;;;;;14.22;49.38;99535.53;5035492;28;8954;-63
2022/04/13 02:48:50;;;;;;;;;5.50;4.75;;;;;14.14;48.83;99540.78;5035804;28;8875;-62
2022/04/13 02:51:18;;;;;;;;;5.50;4.00;;;;;14.03;49.06;99532.16;5037736;28;8836;-62
2022/04/13 02:53:46;;;;;;;;;3.50;3.50;;;;;13.94;50.04;99541.06;5035355;28;8878;-62
2022/04/13 02:56:14;;;;;;;;;3.75;3.75;;;;;13.84;49.29;99534.97;5034294;28;8955;-62
2022/04/13 02:58:41;;;;;;;;;6.25;5.00;;;;;13.75;49.71;99543.91;5035155;28;8882;-64
2022/04/13 03:01:09;;;;;;;;;3.50;3.50;;;;;13.64;50.48;99541.44;5048457;28;8961;-63
2022/04/13 03:03:37;;;;;;;;;5.00;5.00;;;;;13.53;50.38;99539.81;5053016;28;8862;-62
2022/04/13 03:06:05;;;;;;;;;5.25;5.00;;;;;13.44;50.31;99550.59;5053183;28;8814;-63
2022/04/13 03:08:32;;;;;;;;;4.00;4.00;;;;;13.34;50.60;99549.78;5047631;28;8831;-62
2022/04/13 03:11:00;;;;;;;;;4.50;4.00;;;;;13.24;51.32;99555.22;5036681;28;8971;-62
2022/04/13 03:13:28;;;;;;;;;3.00;3.00;;;;;13.15;51.03;99556.06;5050451;28;8846;-62
2022/04/13 03:15:57;;;;;;;;;3.75;3.75;;;;;13.07;51.05;99558.63;5035312;28;8844;-63
2022/04/13 03:18:25;;;;;;;;;3.00;3.00;;;;;13.02;51.56;99549.38;5035261;28;8891;-62
2022/04/13 03:20:52;;;;;;;;;3.25;3.25;;;;;12.96;51.48;99558.84;5035279;28;8833;-62
2022/04/13 03:23:20;;;;;;;;;3.50;3.50;;;;;12.90;51.39;99561.22;5034724;28;9595;-62
2022/04/13 03:25:49;;;;;;;;;3.25;3.25;;;;;12.85;51.70;99563.50;5035146;28;8853;-62
2022/04/13 03:28:17;;;;;;;;;4.00;4.00;;;;;12.80;51.51;99561.25;5049089;28;8842;-61
2022/04/13 03:30:45;;;;;;;;;3.00;3.00;;;;;12.76;51.56;99565.19;5055397;28;8907;-61
2022/04/13 03:33:12;;;;;;;;;1.00;1.00;;;;;12.73;52.29;99569.97;5055153;28;9590;-62
2022/04/13 03:35:40;;;;;;;;;1.00;1.00;;;;;12.69;52.06;99564.09;5054601;28;8826;-62
2022/04/13 03:38:08;;;;;;;;;3.75;3.75;;;;;12.66;51.59;99571.53;5055023;28;8818;-62
2022/04/13 03:40:36;;;;;;;;;3.25;3.25;;;;;12.63;52.06;99574.50;5038785;28;9541;-61
2022/04/13 03:43:04;;;;;;;;;4.00;3.00;;;;;12.59;52.14;99570.44;5035398;28;8918;-61
2022/04/13 03:45:32;;;;;;;;;5.50;5.50;;;;;12.58;51.86;99579.44;5054812;28;8912;-62
2022/04/13 03:47:59;;;;;;;;;7.50;7.00;;;;;12.57;51.97;99577.75;5046117;28;8845;-62
2022/04/13 03:50:27;;;;;;;;;3.25;3.00;;;;;12.57;51.68;99575.09;5034051;28;8851;-62
2022/04/13 03:52:55;;;;;;;;;4.00;4.00;;;;;12.56;51.61;99582.28;5034462;28;9601;-62
2022/04/13 03:55:23;;;;;;;;;5.00;4.00;;;;;12.54;52.26;99581.53;5035344;28;8848;-62
2022/04/13 03:57:51;;;;;;;;;1.25;0.25;;;;;12.52;52.25;99588.00;5035025;28;8859;-62
2022/04/13 04:00:19;;;;;;;;;5.50;3.00;;;;;12.51;51.83;99589.00;5045565;28;8831;-62
2022/04/13 04:02:47;;;;;;;;;4.50;4.00;;;;;12.51;51.79;99592.53;5054848;28;8802;-61
2022/04/13 04:05:14;;;;;;;;;3.50;3.00;;;;;12.52;52.49;99596.88;5058211;28;8830;-61
2022/04/13 04:07:42;;;;;;;;;4.00;4.00;;;;;12.54;51.72;99592.22;5058177;28;8814;-62
2022/04/13 04:10:10;;;;;;;;;7.00;6.25;;;;;12.58;52.11;99592.78;5057499;28;8952;-62
2022/04/13 04:12:39;;;;;;;;;4.00;4.00;;;;;12.60;51.56;99597.00;5055296;28;8968;-62
2022/04/13 04:15:08;;;;;;;;;4.50;4.00;;;;;12.61;52.04;99595.19;5039795;28;9728;-62
2022/04/13 04:17:35;;;;;;;;;3.00;3.00;;;;;12.63;51.52;99601.22;5037297;28;8852;-62
2022/04/13 04:20:03;;;;;;;;;3.75;3.75;;;;;12.67;51.72;99603.47;5049723;28;8827;-62
2022/04/13 04:22:31;;;;;;;;;4.00;4.00;;;;;12.68;51.73;99590.97;5048420;28;8864;-62
2022/04/13 04:24:59;;;;;;;;;4.00;3.50;;;;;12.68;51.70;99602.47;5037477;28;8836;-62
2022/04/13 04:27:26;;;;;;;;;6.00;4.50;;;;;12.65;51.61;99599.25;5037685;28;8852;-62
2022/04/13 04:29:54;;;;;;;;;6.25;5.50;;;;;12.59;51.96;99597.13;5037959;28;8957;-62
2022/04/13 04:32:21;;;;;;;;;5.00;4.00;;;;;12.50;51.97;99598.88;5052506;28;8839;-62
2022/04/13 04:34:51;;;;;;;;;3.75;3.75;;;;;12.43;52.19;99599.56;5057819;28;8842;-62
2022/04/13 04:37:18;;;;;;;;;3.00;3.00;;;;;12.36;51.97;99607.31;5050898;28;8847;-62
2022/04/13 04:39:46;;;;;;;;;6.50;6.00;;;;;12.31;52.88;99606.06;5037375;28;8840;-62
2022/04/13 04:42:14;;;;;;;;;5.50;4.00;;;;;12.27;52.62;99608.16;5037690;28;8840;-62
2022/04/13 04:44:42;;;;;;;;;6.00;6.00;;;;;12.25;52.60;99612.78;5045682;28;8830;-63
2022/04/13 04:47:09;;;;;;;;;6.00;6.00;;;;;12.20;52.78;99616.84;5057533;28;8822;-62
2022/04/13 04:49:37;;;;;;;;;4.00;4.00;;;;;12.16;53.16;99626.13;5058132;28;8830;-62
2022/04/13 04:52:05;;;;;;;;;4.00;3.00;;;;;12.12;52.85;99627.38;5057125;28;8852;-62
2022/04/13 04:54:32;;;;;;;;;3.00;1.50;;;;;12.08;52.88;99628.66;5056863;28;8858;-62
2022/04/13 04:57:00;;;;;;;;;4.00;4.00;;;;;12.04;53.13;99627.25;5055514;28;8873;-62
2022/04/13 04:59:28;;;;;;;;;5.00;5.00;;;;;12.00;53.36;99634.69;5056993;28;8973;-62
2022/04/13 05:01:55;;;;;;;;;5.00;5.00;;;;;11.98;53.30;99625.97;5055130;28;9536;-62
2022/04/13 05:04:24;;;;;;;;;3.75;3.75;;;;;11.95;53.24;99631.56;5038577;28;8914;-62
2022/04/13 05:06:51;;;;;;;;;3.75;3.75;;;;;11.93;53.05;99638.88;5037516;28;8848;-63
2022/04/13 05:09:20;;;;;;;;;4.00;4.00;;;;;11.93;53.04;99640.72;5037183;28;8852;-62
2022/04/13 05:11:48;;;;;;;;;6.00;6.00;;;;;11.93;53.75;99640.72;5036729;28;8844;-62
2022/04/13 05:14:18;;;;;;;;;5.00;5.00;;;;;11.94;53.62;99643.22;5044124;28;8822;-62
2022/04/13 05:16:46;;;;;;;;;4.00;3.50;;;;;11.94;53.31;99640.56;5036306;28;8918;-62
2022/04/13 05:19:15;;;;;;;;;4.00;4.00;;;;;11.98;52.88;99642.00;5036868;28;8844;-62
2022/04/13 05:21:43;;;;;;;;;3.50;3.00;;;;;12.01;53.27;99643.53;5036627;28;8825;-62
2022/04/13 05:24:11;;;;;;;;;5.50;5.50;;;;;12.02;53.26;99653.22;5036572;28;8845;-62
2022/04/13 05:26:38;;;;;;;;;4.50;4.00;;;;;12.05;53.04;99661.81;5036407;28;8851;-61
2022/04/13 05:29:06;;;;;;;;;5.50;5.50;;;;;12.08;52.84;99644.69;5035978;28;8884;-63
2022/04/13 05:31:34;;;;;;;;;1.00;0.75;;;;;12.13;53.34;99661.97;5036553;28;8836;-62
2022/04/13 05:34:02;;;;;;;;;6.00;6.00;;;;;12.15;53.02;99661.81;5054824;28;8837;-62
2022/04/13 05:36:30;;;;;;;;;4.00;4.00;;;;;12.13;53.25;99653.09;5056172;28;8854;-62
2022/04/13 05:38:57;;;;;;;;;4.00;3.50;;;;;12.12;53.27;99659.41;5055547;28;9534;-62
2022/04/13 05:41:25;;;;;;;;;5.00;5.00;;;;;12.13;52.83;99659.28;5056048;28;9642;-62
2022/04/13 05:43:53;;;;;;;;;2.50;1.00;;;;;12.16;53.42;99650.16;5048831;28;8834;-62
2022/04/13 05:46:21;;;;;;;;;5.00;4.00;;;;;12.18;53.26;99656.19;5050919;28;8957;-62
2022/04/13 05:48:48;;;;;;;;;5.00;4.00;;;;;12.22;53.26;99660.25;5055154;28;8838;-63
2022/04/13 05:51:16;;;;;;;;;5.00;4.50;;;;;12.28;52.75;99659.72;5045453;28;8852;-62
2022/04/13 05:53:44;;;;;;;;;4.00;4.00;;;;;12.34;53.35;99664.50;5035686;28;8830;-63
2022/04/13 05:56:12;;;;;;;;;6.75;6.50;;;;;12.42;52.49;99670.84;5035057;28;9884;-62
2022/04/13 05:58:39;;;;;;;;;6.75;6.00;;;;;12.48;52.60;99672.94;5034904;28;8844;-62
2022/04/13 06:01:07;;;;;;;;;5.50;5.50;;;;;12.54;52.34;99671.53;5036164;28;9555;-63
2022/04/13 06:03:35;;;;;;;;;7.00;6.50;;;;;12.58;52.53;99681.78;5051990;28;8818;-67
2022/04/13 06:06:10;;;;;;;;;6.00;6.00;;;;;12.65;52.89;99679.41;5055064;28;8931;-62
2022/04/13 06:08:38;;;;;;;;;4.50;4.00;;;;;12.72;52.33;99685.84;5039400;28;9541;-62
2022/04/13 06:11:06;;;;;;;;;4.00;3.50;;;;;12.80;51.85;99676.16;5030970;28;9512;-62
2022/04/13 06:13:34;;;;;;;;;5.25;3.50;;;;;12.90;52.17;99689.50;5030978;28;8828;-62
2022/04/13 06:16:02;;;;;;;;;5.00;5.00;;;;;13.01;51.99;99684.03;5030701;28;8856;-62
2022/04/13 06:18:30;;;;;;;;;6.00;5.50;;;;;13.12;51.50;99690.06;5032658;28;8855;-62
2022/04/13 06:20:57;;;;;;;;;6.50;6.00;;;;;13.26;51.42;99689.59;5038853;28;8831;-62
2022/04/13 06:23:25;;;;;;;;;6.00;6.00;;;;;13.38;51.77;99695.63;5053274;28;8866;-62
2022/04/13 06:25:53;;;;;;;;;6.75;5.50;;;;;13.52;50.79;99698.66;5053248;28;9531;-62
2022/04/13 06:28:20;;;;;;;;;6.50;5.00;;;;;13.66;51.13;99705.38;5053553;28;8822;-62
2022/04/13 06:30:48;;;;;;;;;8.00;6.50;;;;;13.83;50.63;99701.91;5053706;28;8857;-62
2022/04/13 06:33:16;;;;;;;;;7.50;7.00;;;;;13.99;50.13;99696.75;5052828;28;8831;-62
2022/04/13 06:35:44;;;;;;;;;7.00;7.00;;;;;14.11;50.51;99704.44;5052741;28;8826;-62
2022/04/13 06:38:11;;;;;;;;;5.75;5.50;;;;;14.26;50.46;99702.94;5034221;28;8829;-62
2022/04/13 06:40:39;;;;;;;;;7.50;7.00;;;;;14.41;50.19;99703.28;5034912;28;9637;-62
2022/04/13 06:43:07;;;;;;;;;6.25;6.00;;;;;14.58;49.41;99710.50;5034058;28;8852;-62
2022/04/13 06:45:36;;;;;;;;;9.50;8.00;;;;;14.71;49.69;99717.16;5047230;28;9781;-62
2022/04/13 06:48:04;;;;;;;;;9.25;8.75;;;;;14.86;49.62;99709.41;5037474;28;8848;-63
2022/04/13 06:50:34;;;;;;;;;9.00;8.00;;;;;14.99;49.33;99715.19;5034590;28;8898;-62
2022/04/13 06:53:02;;;;;;;;;9.50;8.50;;;;;15.11;49.29;99709.44;5042579;28;8830;-62
2022/04/13 06:55:30;;;;;;;;;8.00;8.00;;;;;15.20;49.06;99711.19;5053686;28;8900;-62
2022/04/13 06:57:57;;;;;;;;;6.00;6.00;;;;;15.30;49.23;99713.75;5054138;28;8855;-62
2022/04/13 07:00:25;;;;;;;;;6.75;5.50;;;;;15.42;49.08;99717.91;5053547;28;8860;-62
2022/04/13 07:02:57;;;;;;;;;8.00;8.00;;;;;15.52;48.93;99719.50;5044678;28;8859;-62
2022/04/13 07:05:38;;;;;;;;;6.00;6.00;;;;;15.67;48.34;99727.78;5033169;28;8933;-62
2022/04/13 07:08:06;;;;;;;;;4.00;4.00;;;;;15.80;48.05;99729.06;5033734;28;8839;-63
2022/04/13 07:10:34;;;;;;;;;10.50;10.00;;;;;15.93;48.38;99734.81;5047176;28;8879;-62
2022/04/13 07:13:10;;;;;;;;;7.50;7.50;;;;;16.13;48.11;99738.06;5052320;28;8834;-63
2022/04/13 07:15:39;;;;;;;;;8.00;8.00;;;;;16.35;47.50;99741.03;5040683;28;8836;-62
2022/04/13 07:18:07;;;;;;;;;6.25;6.25;;;;;16.61;47.51;99731.88;5049882;28;8822;-62
2022/04/13 07:20:34;;;;;;;;;9.00;9.00;;;;;16.85;47.08;99734.59;5053751;28;8841;-62
2022/04/13 07:23:02;;;;;;;;;9.00;9.00;;;;;17.10;46.94;99738.97;5052631;28;9517;-62
2022/04/13 07:25:31;;;;;;;;;4.25;3.50;;;;;17.33;46.56;99744.53;5053773;28;8870;-63
2022/04/13 07:27:59;;;;;;;;;7.00;6.75;;;;;17.54;46.39;99736.81;5053675;28;8945;-62
2022/04/13 07:30:26;;;;;;;;;6.00;6.00;;;;;17.79;46.06;99738.41;5054306;28;8981;-62
2022/04/13 07:32:55;;;;;;;;;7.00;6.00;;;;;18.06;45.69;99740.69;5050485;28;8830;-62
2022/04/13 07:35:23;;;;;;;;;3.40;3.40;;;;;18.30;45.17;99730.66;5014550;28;8858;-62
2022/04/13 07:37:51;;;;;;;;;6.60;6.60;;;;;18.55;44.69;99740.31;5027478;28;8914;-63
2022/04/13 07:40:19;;;;;;;;;7.00;6.60;;;;;18.78;44.72;99737.63;5038876;28;8849;-62
2022/04/13 07:42:47;;;;;;;;;7.40;6.80;;;;;19.04;44.05;99741.66;5037507;28;8828;-62
2022/04/13 07:45:14;;;;;;;;;6.40;5.60;;;;;19.24;43.98;99744.72;5047408;28;8979;-63
2022/04/13 07:47:45;;;;;;;;;6.60;6.00;;;;;19.38;43.98;99738.53;5048473;28;8849;-62
2022/04/13 07:50:13;;;;;;;;;9.40;6.80;;;;;19.43;43.93;99742.34;5056646;28;8852;-62
2022/04/13 07:52:40;;;;;;;;;8.40;6.80;;;;;19.46;43.68;99746.56;5056755;28;8822;-62
2022/04/13 07:55:09;;;;;;;;;9.20;8.40;;;;;19.45;43.80;99745.75;5056022;28;8968;-63
2022/04/13 07:57:37;;;;;;;;;8.00;6.00;;;;;19.43;43.90;99745.06;5055497;28;8847;-63
2022/04/13 08:00:05;;;;;;;;;3.80;3.40;;;;;19.39;44.08;99756.41;5046513;28;8922;-62
2022/04/13 08:02:34;;;;;;;;;7.00;7.00;;;;;19.36;44.36;99751.38;5037088;28;8821;-62
2022/04/13 08:05:02;;;;;;;;;10.80;10.00;;;;;19.30;44.43;99752.13;5036021;28;8849;-63
2022/04/13 08:07:30;;;;;;;;;12.60;11.80;;;;;19.31;44.64;99753.78;5035597;28;8925;-62
2022/04/13 08:09:58;;;;;;;;;9.40;8.40;;;;;19.38;44.42;99752.91;5036818;28;8832;-62
2022/04/13 08:12:27;;;;;;;;;10.00;9.40;;;;;19.47;44.83;99754.50;5036315;28;8824;-67
2022/04/13 08:14:54;;;;;;;;;5.00;4.00;;;;;19.53;44.94;99761.88;5043189;28;9546;-63
2022/04/13 08:17:23;;;;;;;;;9.80;9.80;;;;;19.62;44.35;99762.63;5047730;28;8820;-63
2022/04/13 08:19:51;;;;;;;;;8.60;8.40;;;;;19.77;43.77;99755.38;5019766;28;8835;-63
2022/04/13 08:22:19;;;;;;;;;8.40;7.40;;;;;19.97;43.95;99770.88;5037163;28;8844;-63
2022/04/13 08:24:47;;;;;;;;;7.40;7.40;;;;;20.20;43.92;99777.06;5036739;28;8983;-63
2022/04/13 08:27:14;;;;;;;;;8.40;8.40;;;;;20.39;43.56;99768.34;5039844;28;8859;-63
2022/04/13 08:29:42;;;;;;;;;3.20;3.20;;;;;20.57;42.93;99771.53;5048695;28;8832;-62
2022/04/13 08:32:10;;;;;;;;;8.40;7.80;;;;;20.73;42.72;99771.28;5040337;28;8815;-63
2022/04/13 08:34:38;;;;;;;;;13.80;11.00;;;;;20.82;42.77;99770.13;5056864;28;9860;-62
2022/04/13 08:37:05;;;;;;;;;16.80;15.20;;;;;20.85;42.86;99769.75;5050948;28;8840;-62
2022/04/13 08:39:34;;;;;;;;;10.60;7.80;;;;;20.92;42.72;99765.28;5036341;28;8929;-62
2022/04/13 08:42:01;;;;;;;;;10.40;10.40;;;;;21.00;42.94;99767.84;5035849;28;8863;-62
2022/04/13 08:44:29;;;;;;;;;10.60;10.60;;;;;21.02;42.83;99771.25;5038262;28;8933;-62
2022/04/13 08:46:57;;;;;;;;;14.20;12.80;;;;;21.08;42.80;99770.44;5054733;28;8850;-62
2022/04/13 08:49:25;;;;;;;;;9.40;9.20;;;;;21.11;43.00;99778.19;5049193;28;8836;-62
2022/04/13 08:51:57;;;;;;;;;10.00;10.00;;;;;21.17;43.33;99775.53;5035896;28;8844;-62
2022/04/13 08:54:25;;;;;;;;;7.60;7.20;;;;;21.21;43.18;99784.13;5046798;28;9503;-63
2022/04/13 08:56:53;;;;;;;;;10.20;10.20;;;;;21.27;42.93;99780.66;5056305;28;8854;-62
2022/04/13 08:59:40;;;;;;;;;11.20;10.00;;;;;21.35;43.20;99784.03;5052232;28;8897;-63
2022/04/13 09:02:09;;;;;;;;;10.40;10.00;;;;;21.45;42.76;99790.00;5037210;28;8882;-64
2022/04/13 09:04:36;;;;;;;;;10.00;9.00;;;;;21.47;42.97;99792.50;5035729;28;8839;-63
2022/04/13 09:07:04;;;;;;;;;12.40;12.40;;;;;21.57;43.09;99793.00;5030466;28;8854;-63
2022/04/13 09:09:32;;;;;;;;;11.40;11.00;;;;;21.68;42.75;99790.63;5035485;28;8859;-63
2022/04/13 09:12:00;;;;;;;;;11.20;11.20;;;;;21.83;42.90;99793.25;5032545;28;8880;-64
2022/04/13 09:14:28;;;;;;;;;13.80;13.80;;;;;21.95;42.16;99797.09;5037532;28;8839;-63
2022/04/13 09:16:56;;;;;;;;;17.60;16.80;;;;;22.13;42.33;99800.13;5054235;28;8968;-63
2022/04/13 09:19:24;;;;;;;;;13.20;12.80;;;;;22.30;41.88;99796.09;5053661;28;8830;-63
2022/04/13 09:21:51;;;;;;;;;13.60;11.80;;;;;22.60;41.85;99792.06;5046729;28;8873;-63
2022/04/13 09:24:19;;;;;;;;;13.20;11.00;;;;;22.84;41.65;99797.81;5054627;28;8860;-63
2022/04/13 09:26:47;;;;;;;;;15.00;15.00;;;;;23.03;41.35;99799.75;5054572;28;8845;-63
2022/04/13 09:29:15;;;;;;;;;8.00;8.00;;;;;23.28;40.80;99797.34;5055429;28;8842;-62
2022/04/13 09:31:43;;;;;;;;;10.80;10.00;;;;;23.55;40.94;99796.31;5047986;28;8854;-62
2022/04/13 09:34:10;;;;;;;;;12.60;11.40;;;;;23.85;40.63;99803.03;5036351;28;8840;-62
2022/04/13 09:36:38;;;;;;;;;12.60;12.60;;;;;24.14;40.11;99799.88;5036468;28;8825;-62
2022/04/13 09:39:06;;;;;;;;;14.00;12.80;;;;;24.39;40.02;99804.44;5034913;28;8832;-64
2022/04/13 09:41:34;;;;;;;;;15.40;14.60;;;;;24.60;39.60;99800.63;5034369;28;8856;-63
2022/04/13 09:44:02;;;;;;;;;14.40;13.80;;;;;24.76;39.87;99800.97;5053218;28;8878;-62
2022/04/13 09:46:30;;;;;;;;;14.00;13.20;;;;;24.82;39.77;99804.72;5052839;28;8903;-63
2022/04/13 09:48:57;;;;;;;;;13.40;13.20;;;;;24.87;39.95;99802.19;5035459;28;8828;-62
2022/04/13 09:51:25;;;;;;;;;14.00;14.00;;;;;25.05;39.51;99805.03;5035997;28;8838;-62
2022/04/13 09:53:54;;;;;;;;;14.40;14.40;;;;;25.35;39.14;99796.09;5053456;28;8826;-62
2022/04/13 09:56:24;;;;;;;;;13.20;11.80;;;;;25.76;39.06;99788.19;5053138;28;8855;-63
2022/04/13 09:58:52;;;;;;;;;13.00;11.00;;;;;26.19;38.33;99794.56;5052911;28;8839;-63
2022/04/13 10:01:20;;;;;;;;;14.80;12.20;;;;;26.58;37.90;99796.88;5037114;28;9702;-64
2022/04/13 10:03:48;;;;;;;;;12.00;11.40;;;;;27.04;37.33;99780.72;5033454;28;8856;-64
2022/04/13 10:06:16;;;;;;;;;13.00;13.00;;;;;27.52;36.79;99779.59;5032927;28;8852;-63
2022/04/13 10:08:43;;;;;;;;;14.00;12.80;;;;;28.04;35.83;99789.69;5033387;28;8820;-63
2022/04/13 10:11:12;;;;;;;;;11.20;10.80;;;;;28.46;35.56;99785.75;5032427;28;8851;-63
2022/04/13 10:13:40;;;;;;;;;15.20;13.00;;;;;28.75;35.76;99778.44;5032070;28;8816;-64
2022/04/13 10:16:08;;;;;;;;;13.60;13.20;;;;;29.04;35.37;99783.72;5033651;28;8841;-63
2022/04/13 10:18:36;;;;;;;;;8.00;7.60;;;;;29.35;34.82;99777.72;5033748;28;8842;-63
2022/04/13 10:21:04;;;;;;;;;13.20;13.20;;;;;29.66;34.56;99781.88;5049363;28;8853;-63
2022/04/13 10:23:32;;;;;;;;;13.00;12.80;;;;;29.91;34.81;99774.91;5038596;28;8830;-63
2022/04/13 10:26:00;;;;;;;;;14.20;13.60;;;;;30.17;34.27;99779.72;5052995;28;8873;-64
2022/04/13 10:28:28;;;;;;;;;15.20;14.00;;;;;30.40;34.21;99776.75;5044929;28;8852;-63
2022/04/13 10:30:55;;;;;;;;;13.60;13.60;;;;;30.62;33.65;99774.03;5034471;28;8860;-63
2022/04/13 10:33:23;;;;;;;;;16.00;15.00;;;;;30.81;33.48;99770.75;5033003;28;9789;-64
2022/04/13 10:35:54;;;;;;;;;18.40;15.40;;;;;31.04;33.61;99770.47;5037008;28;8963;-63
2022/04/13 10:38:21;;;;;;;;;15.00;12.40;;;;;31.24;33.76;99776.19;5040057;28;8857;-63
2022/04/13 10:40:49;;;;;;;;;12.60;11.60;;;;;31.50;32.87;99769.88;5032968;28;8849;-64
2022/04/13 10:43:18;;;;;;;;;13.80;10.60;;;;;31.72;32.59;99779.72;5033309;28;8850;-64
2022/04/13 10:45:45;;;;;;;;;15.00;14.00;;;;;31.92;32.58;99779.06;5033226;28;8859;-63
2022/04/13 10:48:13;;;;;;;;;14.40;13.80;;;;;32.24;32.04;99783.47;5032439;28;8860;-64
2022/04/13 10:50:41;;;;;;;;;12.80;11.80;;;;;32.52;32.73;99782.25;5033413;28;8866;-63
2022/04/13 10:53:09;;;;;;;;;12.80;12.00;;;;;32.75;32.05;99796.47;5043015;28;8861;-63
2022/04/13 10:55:36;;;;;;;;;13.60;13.00;;;;;32.75;31.77;99796.47;5050549;28;8837;-66
2022/04/13 10:58:04;;;;;;;;;16.60;15.60;;;;;32.73;31.50;99789.53;5053057;28;8923;-63
2022/04/13 11:00:32;;;;;;;;;16.60;15.60;;;;;32.84;31.53;99799.56;5051779;28;8838;-63
2022/04/13 11:03:00;;;;;;;;;15.00;14.00;;;;;33.07;31.25;99793.56;5044906;28;8821;-65
2022/04/13 11:05:28;;;;;;;;;14.00;14.00;;;;;33.29;30.65;99797.00;5033350;28;8963;-63
2022/04/13 11:07:56;;;;;;;;;13.80;13.80;;;;;33.39;31.19;99802.53;5042226;28;8807;-63
2022/04/13 11:10:24;;;;;;;;;16.20;14.80;;;;;33.21;30.90;99800.25;5052129;28;8852;-63
2022/04/13 11:12:52;;;;;;;;;14.80;13.60;;;;;32.81;32.40;99806.44;5052825;28;8864;-64
2022/04/13 11:15:20;;;;;;;;;16.00;15.00;;;;;31.97;32.96;99803.91;5051974;28;8850;-64
2022/04/13 11:17:51;;;;;;;;;14.20;14.20;;;;;30.81;35.03;99803.75;5054090;28;8958;-63
2022/04/13 11:20:19;;;;;;;;;18.20;16.20;;;;;30.04;35.32;99806.69;5053475;28;8852;-63
2022/04/13 11:22:52;;;;;;;;;17.40;17.20;;;;;29.80;35.97;99803.25;5051948;28;8803;-63
2022/04/13 11:25:21;;;;;;;;;15.40;14.40;;;;;29.75;35.81;99797.69;5048385;28;8888;-62
2022/04/13 11:27:49;;;;;;;;;17.40;15.20;;;;;29.71;36.34;99806.66;5033308;28;8871;-63
2022/04/13 11:30:16;;;;;;;;;18.60;17.60;;;;;29.80;36.00;99814.25;5033335;28;8851;-65
2022/04/13 11:32:46;;;;;;;;;17.00;16.00;;;;;30.20;35.00;99812.22;5033630;28;8858;-63
2022/04/13 11:35:14;;;;;;;;;22.40;19.80;;;;;30.66;34.45;99810.97;5033330;28;9506;-64
2022/04/13 11:37:41;;;;;;;;;16.00;14.80;;;;;30.59;34.35;99811.13;5040170;28;8834;-63
2022/04/13 11:40:11;;;;;;;;;12.60;12.60;;;;;30.37;34.75;99806.66;5042162;28;8837;-63